sensor_id;sensor_type;location;lat;lon;timestamp;P1;durP1;ratioP1;P2;durP2;ratioP2
75628;SDS011;64213;46.452;16.994;2022-11-23T00:00:45;8.18;;;2.42;;
75628;SDS011;64213;46.452;16.994;2022-11-23T00:03:48;13.05;;;4.75;;
75628;SDS011;64213;46.452;16.994;2022-11-23T00:06:53;13.25;;;5.45;;
75628;SDS011;64213;46.452;16.994;2022-11-23T00:09:55;11.90;;;3.77;;
75628;SDS011;64213;46.452;16.994;2022-11-23T00:12:58;14.43;;;5.18;;
75628;SDS011;64213;46.452;16.994;2022-11-23T00:16:03;9.32;;;3.12;;
75628;SDS011;64213;46.452;16.994;2022-11-23T00:19:08;8.10;;;2.65;;
75628;SDS011;64213;46.452;16.994;2022-11-23T00:22:10;12.37;;;4.28;;
75628;SDS011;64213;46.452;16.994;2022-11-23T00:25:12;12.93;;;4.00;;
75628;SDS011;64213;46.452;16.994;2022-11-23T00:28:15;12.13;;;4.25;;
75628;SDS011;64213;46.452;16.994;2022-11-23T00:31:17;10.57;;;4.05;;
75628;SDS011;64213;46.452;16.994;2022-11-23T00:34:21;15.23;;;5.60;;
75628;SDS011;64213;46.452;16.994;2022-11-23T00:37:23;9.93;;;3.25;;
75628;SDS011;64213;46.452;16.994;2022-11-23T00:40:29;8.60;;;2.57;;
75628;SDS011;64213;46.452;16.994;2022-11-23T00:43:32;9.57;;;3.55;;
75628;SDS011;64213;46.452;16.994;2022-11-23T00:46:35;10.77;;;4.07;;
75628;SDS011;64213;46.452;16.994;2022-11-23T00:49:37;11.20;;;4.15;;
75628;SDS011;64213;46.452;16.994;2022-11-23T00:52:39;11.12;;;4.03;;
75628;SDS011;64213;46.452;16.994;2022-11-23T00:55:49;11.83;;;3.53;;
75628;SDS011;64213;46.452;16.994;2022-11-23T00:58:53;12.10;;;4.18;;
75628;SDS011;64213;46.452;16.994;2022-11-23T01:01:56;11.98;;;3.58;;
75628;SDS011;64213;46.452;16.994;2022-11-23T01:04:59;14.13;;;5.10;;
75628;SDS011;64213;46.452;16.994;2022-11-23T01:08:01;12.13;;;4.32;;
75628;SDS011;64213;46.452;16.994;2022-11-23T01:11:06;12.37;;;4.37;;
75628;SDS011;64213;46.452;16.994;2022-11-23T01:14:10;14.13;;;4.47;;
75628;SDS011;64213;46.452;16.994;2022-11-23T01:17:13;13.40;;;4.43;;
75628;SDS011;64213;46.452;16.994;2022-11-23T01:20:15;13.50;;;4.65;;
75628;SDS011;64213;46.452;16.994;2022-11-23T01:23:18;9.13;;;2.67;;
75628;SDS011;64213;46.452;16.994;2022-11-23T01:26:22;12.93;;;4.77;;
75628;SDS011;64213;46.452;16.994;2022-11-23T01:29:25;13.40;;;4.07;;
75628;SDS011;64213;46.452;16.994;2022-11-23T01:32:27;11.55;;;3.75;;
75628;SDS011;64213;46.452;16.994;2022-11-23T01:35:30;9.63;;;3.15;;
75628;SDS011;64213;46.452;16.994;2022-11-23T01:38:32;11.05;;;4.50;;
75628;SDS011;64213;46.452;16.994;2022-11-23T01:41:36;10.13;;;3.17;;
75628;SDS011;64213;46.452;16.994;2022-11-23T01:44:40;11.55;;;3.10;;
75628;SDS011;64213;46.452;16.994;2022-11-23T01:47:42;9.52;;;3.35;;
75628;SDS011;64213;46.452;16.994;2022-11-23T01:50:45;8.15;;;2.47;;
75628;SDS011;64213;46.452;16.994;2022-11-23T01:53:51;11.07;;;3.05;;
75628;SDS011;64213;46.452;16.994;2022-11-23T01:56:58;7.60;;;2.40;;
75628;SDS011;64213;46.452;16.994;2022-11-23T02:00:04;10.25;;;2.95;;
75628;SDS011;64213;46.452;16.994;2022-11-23T02:03:07;10.07;;;2.75;;
75628;SDS011;64213;46.452;16.994;2022-11-23T02:06:13;6.20;;;1.77;;
75628;SDS011;64213;46.452;16.994;2022-11-23T02:09:18;9.65;;;2.87;;
75628;SDS011;64213;46.452;16.994;2022-11-23T02:12:22;10.90;;;2.83;;
75628;SDS011;64213;46.452;16.994;2022-11-23T02:15:24;9.15;;;2.03;;
75628;SDS011;64213;46.452;16.994;2022-11-23T02:18:28;8.90;;;2.40;;
75628;SDS011;64213;46.452;16.994;2022-11-23T02:21:32;8.75;;;2.60;;
75628;SDS011;64213;46.452;16.994;2022-11-23T02:24:35;8.73;;;3.00;;
75628;SDS011;64213;46.452;16.994;2022-11-23T02:27:46;11.07;;;3.00;;
75628;SDS011;64213;46.452;16.994;2022-11-23T02:30:49;5.68;;;1.52;;
75628;SDS011;64213;46.452;16.994;2022-11-23T02:33:53;8.75;;;2.03;;
75628;SDS011;64213;46.452;16.994;2022-11-23T02:36:55;7.05;;;1.70;;
75628;SDS011;64213;46.452;16.994;2022-11-23T02:39:59;6.10;;;1.42;;
75628;SDS011;64213;46.452;16.994;2022-11-23T02:43:05;6.47;;;1.77;;
75628;SDS011;64213;46.452;16.994;2022-11-23T02:46:24;7.95;;;2.15;;
75628;SDS011;64213;46.452;16.994;2022-11-23T02:49:33;5.72;;;1.33;;
75628;SDS011;64213;46.452;16.994;2022-11-23T02:52:36;8.48;;;1.73;;
75628;SDS011;64213;46.452;16.994;2022-11-23T02:55:38;5.10;;;1.20;;
75628;SDS011;64213;46.452;16.994;2022-11-23T02:58:41;6.73;;;1.63;;
75628;SDS011;64213;46.452;16.994;2022-11-23T03:01:43;6.28;;;1.55;;
75628;SDS011;64213;46.452;16.994;2022-11-23T03:04:45;5.57;;;1.33;;
75628;SDS011;64213;46.452;16.994;2022-11-23T03:07:48;7.25;;;1.52;;
75628;SDS011;64213;46.452;16.994;2022-11-23T03:10:50;9.10;;;2.35;;
75628;SDS011;64213;46.452;16.994;2022-11-23T03:13:52;8.90;;;2.17;;
75628;SDS011;64213;46.452;16.994;2022-11-23T03:16:55;6.87;;;1.67;;
75628;SDS011;64213;46.452;16.994;2022-11-23T03:19:57;7.45;;;1.85;;
75628;SDS011;64213;46.452;16.994;2022-11-23T03:22:59;5.50;;;1.30;;
75628;SDS011;64213;46.452;16.994;2022-11-23T03:26:02;8.27;;;2.17;;
75628;SDS011;64213;46.452;16.994;2022-11-23T03:29:12;7.37;;;2.00;;
75628;SDS011;64213;46.452;16.994;2022-11-23T03:32:14;6.97;;;1.73;;
75628;SDS011;64213;46.452;16.994;2022-11-23T03:35:16;5.72;;;1.23;;
75628;SDS011;64213;46.452;16.994;2022-11-23T03:38:18;6.70;;;1.52;;
75628;SDS011;64213;46.452;16.994;2022-11-23T03:41:21;9.18;;;2.08;;
75628;SDS011;64213;46.452;16.994;2022-11-23T03:44:23;8.20;;;1.60;;
75628;SDS011;64213;46.452;16.994;2022-11-23T03:47:25;6.53;;;1.60;;
75628;SDS011;64213;46.452;16.994;2022-11-23T03:50:28;7.80;;;1.65;;
75628;SDS011;64213;46.452;16.994;2022-11-23T03:53:30;7.72;;;1.80;;
75628;SDS011;64213;46.452;16.994;2022-11-23T03:56:32;6.82;;;1.73;;
75628;SDS011;64213;46.452;16.994;2022-11-23T03:59:35;7.20;;;1.83;;
75628;SDS011;64213;46.452;16.994;2022-11-23T04:02:37;6.85;;;1.87;;
75628;SDS011;64213;46.452;16.994;2022-11-23T04:05:39;5.70;;;1.27;;
75628;SDS011;64213;46.452;16.994;2022-11-23T04:08:41;6.12;;;1.45;;
75628;SDS011;64213;46.452;16.994;2022-11-23T04:11:44;7.47;;;2.22;;
75628;SDS011;64213;46.452;16.994;2022-11-23T04:14:46;8.37;;;1.80;;
75628;SDS011;64213;46.452;16.994;2022-11-23T04:17:48;9.00;;;1.52;;
75628;SDS011;64213;46.452;16.994;2022-11-23T04:20:51;7.87;;;1.95;;
75628;SDS011;64213;46.452;16.994;2022-11-23T04:23:53;4.57;;;0.93;;
75628;SDS011;64213;46.452;16.994;2022-11-23T04:26:55;7.05;;;1.40;;
75628;SDS011;64213;46.452;16.994;2022-11-23T04:29:58;7.03;;;1.40;;
75628;SDS011;64213;46.452;16.994;2022-11-23T04:33:00;5.28;;;1.10;;
75628;SDS011;64213;46.452;16.994;2022-11-23T04:36:02;5.28;;;1.02;;
75628;SDS011;64213;46.452;16.994;2022-11-23T04:39:05;5.68;;;1.12;;
75628;SDS011;64213;46.452;16.994;2022-11-23T04:42:09;4.45;;;1.00;;
75628;SDS011;64213;46.452;16.994;2022-11-23T04:45:12;6.83;;;1.60;;
75628;SDS011;64213;46.452;16.994;2022-11-23T04:48:15;5.90;;;1.55;;
75628;SDS011;64213;46.452;16.994;2022-11-23T04:51:17;6.35;;;1.65;;
75628;SDS011;64213;46.452;16.994;2022-11-23T04:54:19;7.70;;;1.42;;
75628;SDS011;64213;46.452;16.994;2022-11-23T04:57:21;6.15;;;1.40;;
75628;SDS011;64213;46.452;16.994;2022-11-23T05:00:24;5.73;;;1.10;;
75628;SDS011;64213;46.452;16.994;2022-11-23T05:03:26;7.28;;;1.48;;
75628;SDS011;64213;46.452;16.994;2022-11-23T05:06:29;6.53;;;1.83;;
75628;SDS011;64213;46.452;16.994;2022-11-23T05:09:31;6.18;;;1.70;;
75628;SDS011;64213;46.452;16.994;2022-11-23T05:12:34;6.95;;;1.75;;
75628;SDS011;64213;46.452;16.994;2022-11-23T05:15:37;5.57;;;1.30;;
75628;SDS011;64213;46.452;16.994;2022-11-23T05:18:39;4.93;;;1.02;;
75628;SDS011;64213;46.452;16.994;2022-11-23T05:21:41;6.65;;;1.62;;
75628;SDS011;64213;46.452;16.994;2022-11-23T05:24:44;5.35;;;1.33;;
75628;SDS011;64213;46.452;16.994;2022-11-23T05:27:46;7.12;;;1.65;;
75628;SDS011;64213;46.452;16.994;2022-11-23T05:30:48;6.67;;;1.20;;
75628;SDS011;64213;46.452;16.994;2022-11-23T05:33:51;6.00;;;0.98;;
75628;SDS011;64213;46.452;16.994;2022-11-23T05:36:53;7.25;;;1.65;;
75628;SDS011;64213;46.452;16.994;2022-11-23T05:39:55;7.28;;;1.75;;
75628;SDS011;64213;46.452;16.994;2022-11-23T05:42:58;5.37;;;1.05;;
75628;SDS011;64213;46.452;16.994;2022-11-23T05:46:00;7.13;;;1.90;;
75628;SDS011;64213;46.452;16.994;2022-11-23T05:49:03;5.47;;;1.40;;
75628;SDS011;64213;46.452;16.994;2022-11-23T05:52:06;8.35;;;1.87;;
75628;SDS011;64213;46.452;16.994;2022-11-23T05:55:08;6.70;;;1.67;;
75628;SDS011;64213;46.452;16.994;2022-11-23T05:58:16;7.18;;;1.60;;
75628;SDS011;64213;46.452;16.994;2022-11-23T06:01:18;6.47;;;1.57;;
75628;SDS011;64213;46.452;16.994;2022-11-23T06:04:20;7.93;;;2.28;;
75628;SDS011;64213;46.452;16.994;2022-11-23T06:07:23;9.27;;;3.47;;
75628;SDS011;64213;46.452;16.994;2022-11-23T06:10:25;9.73;;;2.83;;
75628;SDS011;64213;46.452;16.994;2022-11-23T06:13:28;8.07;;;2.12;;
75628;SDS011;64213;46.452;16.994;2022-11-23T06:16:30;7.00;;;1.87;;
75628;SDS011;64213;46.452;16.994;2022-11-23T06:19:33;7.35;;;2.33;;
75628;SDS011;64213;46.452;16.994;2022-11-23T06:22:35;11.82;;;3.00;;
75628;SDS011;64213;46.452;16.994;2022-11-23T06:25:38;10.05;;;2.42;;
75628;SDS011;64213;46.452;16.994;2022-11-23T06:28:41;8.48;;;2.72;;
75628;SDS011;64213;46.452;16.994;2022-11-23T06:31:43;7.00;;;1.93;;
75628;SDS011;64213;46.452;16.994;2022-11-23T06:34:46;6.87;;;1.95;;
75628;SDS011;64213;46.452;16.994;2022-11-23T06:37:49;7.07;;;2.30;;
75628;SDS011;64213;46.452;16.994;2022-11-23T06:40:52;7.82;;;2.72;;
75628;SDS011;64213;46.452;16.994;2022-11-23T06:43:57;13.43;;;4.47;;
75628;SDS011;64213;46.452;16.994;2022-11-23T06:47:00;11.80;;;4.30;;
75628;SDS011;64213;46.452;16.994;2022-11-23T06:50:02;12.75;;;4.35;;
75628;SDS011;64213;46.452;16.994;2022-11-23T06:53:04;10.35;;;3.70;;
75628;SDS011;64213;46.452;16.994;2022-11-23T06:56:07;11.65;;;4.40;;
75628;SDS011;64213;46.452;16.994;2022-11-23T06:59:10;11.15;;;4.22;;
75628;SDS011;64213;46.452;16.994;2022-11-23T07:02:12;8.00;;;2.30;;
75628;SDS011;64213;46.452;16.994;2022-11-23T07:05:15;12.95;;;4.12;;
75628;SDS011;64213;46.452;16.994;2022-11-23T07:08:18;10.25;;;3.33;;
75628;SDS011;64213;46.452;16.994;2022-11-23T07:11:20;7.07;;;1.85;;
75628;SDS011;64213;46.452;16.994;2022-11-23T07:14:22;10.02;;;3.08;;
75628;SDS011;64213;46.452;16.994;2022-11-23T07:17:24;10.03;;;3.37;;
75628;SDS011;64213;46.452;16.994;2022-11-23T07:20:27;9.90;;;3.03;;
75628;SDS011;64213;46.452;16.994;2022-11-23T07:23:29;7.82;;;2.55;;
75628;SDS011;64213;46.452;16.994;2022-11-23T07:26:31;9.45;;;2.92;;
75628;SDS011;64213;46.452;16.994;2022-11-23T07:29:34;6.97;;;2.00;;
75628;SDS011;64213;46.452;16.994;2022-11-23T07:32:36;8.50;;;1.93;;
75628;SDS011;64213;46.452;16.994;2022-11-23T07:35:39;10.55;;;3.35;;
75628;SDS011;64213;46.452;16.994;2022-11-23T07:38:42;10.25;;;2.58;;
75628;SDS011;64213;46.452;16.994;2022-11-23T07:41:44;11.43;;;3.58;;
75628;SDS011;64213;46.452;16.994;2022-11-23T07:44:52;9.18;;;3.25;;
75628;SDS011;64213;46.452;16.994;2022-11-23T07:47:58;10.37;;;3.33;;
75628;SDS011;64213;46.452;16.994;2022-11-23T07:51:01;10.68;;;3.65;;
75628;SDS011;64213;46.452;16.994;2022-11-23T07:54:04;8.70;;;2.12;;
75628;SDS011;64213;46.452;16.994;2022-11-23T07:57:06;11.60;;;4.12;;
75628;SDS011;64213;46.452;16.994;2022-11-23T08:00:09;14.38;;;5.50;;
75628;SDS011;64213;46.452;16.994;2022-11-23T08:03:12;12.93;;;4.30;;
75628;SDS011;64213;46.452;16.994;2022-11-23T08:06:31;14.55;;;5.00;;
75628;SDS011;64213;46.452;16.994;2022-11-23T08:09:33;9.27;;;3.25;;
75628;SDS011;64213;46.452;16.994;2022-11-23T08:12:36;14.93;;;5.00;;
75628;SDS011;64213;46.452;16.994;2022-11-23T08:15:38;14.23;;;4.95;;
75628;SDS011;64213;46.452;16.994;2022-11-23T08:18:40;13.50;;;4.27;;
75628;SDS011;64213;46.452;16.994;2022-11-23T08:21:43;10.77;;;3.85;;
75628;SDS011;64213;46.452;16.994;2022-11-23T08:24:46;14.25;;;5.12;;
75628;SDS011;64213;46.452;16.994;2022-11-23T08:27:58;13.48;;;3.70;;
75628;SDS011;64213;46.452;16.994;2022-11-23T08:31:06;11.05;;;3.47;;
75628;SDS011;64213;46.452;16.994;2022-11-23T08:34:09;11.90;;;3.73;;
75628;SDS011;64213;46.452;16.994;2022-11-23T08:37:17;9.30;;;2.95;;
75628;SDS011;64213;46.452;16.994;2022-11-23T08:40:20;7.93;;;2.25;;
75628;SDS011;64213;46.452;16.994;2022-11-23T08:43:26;10.23;;;3.30;;
75628;SDS011;64213;46.452;16.994;2022-11-23T08:46:29;10.75;;;3.97;;
75628;SDS011;64213;46.452;16.994;2022-11-23T08:49:32;10.80;;;3.80;;
75628;SDS011;64213;46.452;16.994;2022-11-23T08:52:34;12.37;;;4.35;;
75628;SDS011;64213;46.452;16.994;2022-11-23T08:55:36;11.82;;;3.62;;
75628;SDS011;64213;46.452;16.994;2022-11-23T08:58:39;11.85;;;4.00;;
75628;SDS011;64213;46.452;16.994;2022-11-23T09:01:42;13.30;;;4.22;;
75628;SDS011;64213;46.452;16.994;2022-11-23T09:04:45;13.00;;;4.37;;
75628;SDS011;64213;46.452;16.994;2022-11-23T09:07:47;9.82;;;3.65;;
75628;SDS011;64213;46.452;16.994;2022-11-23T09:10:49;12.90;;;4.00;;
75628;SDS011;64213;46.452;16.994;2022-11-23T09:13:51;7.22;;;2.05;;
75628;SDS011;64213;46.452;16.994;2022-11-23T09:16:54;12.48;;;3.40;;
75628;SDS011;64213;46.452;16.994;2022-11-23T09:19:56;8.37;;;1.87;;
75628;SDS011;64213;46.452;16.994;2022-11-23T09:22:59;6.65;;;2.17;;
75628;SDS011;64213;46.452;16.994;2022-11-23T09:26:01;8.43;;;2.72;;
75628;SDS011;64213;46.452;16.994;2022-11-23T09:29:06;10.68;;;3.70;;
75628;SDS011;64213;46.452;16.994;2022-11-23T09:32:09;11.63;;;3.28;;
75628;SDS011;64213;46.452;16.994;2022-11-23T09:35:12;10.90;;;3.37;;
75628;SDS011;64213;46.452;16.994;2022-11-23T09:38:14;14.77;;;2.80;;
75628;SDS011;64213;46.452;16.994;2022-11-23T09:48:13;8.73;;;2.62;;
75628;SDS011;64213;46.452;16.994;2022-11-23T09:51:26;7.77;;;1.97;;
75628;SDS011;64213;46.452;16.994;2022-11-23T09:54:30;9.25;;;2.37;;
75628;SDS011;64213;46.452;16.994;2022-11-23T09:57:38;8.40;;;2.72;;
75628;SDS011;64213;46.452;16.994;2022-11-23T10:00:45;7.95;;;2.72;;
75628;SDS011;64213;46.452;16.994;2022-11-23T10:03:51;8.57;;;2.72;;
75628;SDS011;64213;46.452;16.994;2022-11-23T10:06:56;10.20;;;3.57;;
75628;SDS011;64213;46.452;16.994;2022-11-23T10:10:12;10.90;;;3.20;;
75628;SDS011;64213;46.452;16.994;2022-11-23T10:13:42;9.40;;;2.72;;
75628;SDS011;64213;46.452;16.994;2022-11-23T10:16:49;10.65;;;3.80;;
75628;SDS011;64213;46.452;16.994;2022-11-23T10:23:12;13.20;;;4.70;;
75628;SDS011;64213;46.452;16.994;2022-11-23T10:26:27;14.13;;;5.55;;
75628;SDS011;64213;46.452;16.994;2022-11-23T10:29:34;10.82;;;3.60;;
75628;SDS011;64213;46.452;16.994;2022-11-23T10:35:50;16.27;;;5.18;;
75628;SDS011;64213;46.452;16.994;2022-11-23T10:38:54;14.77;;;5.53;;
75628;SDS011;64213;46.452;16.994;2022-11-23T10:42:00;14.02;;;5.55;;
75628;SDS011;64213;46.452;16.994;2022-11-23T10:45:21;15.07;;;5.55;;
75628;SDS011;64213;46.452;16.994;2022-11-23T10:48:32;10.82;;;3.67;;
75628;SDS011;64213;46.452;16.994;2022-11-23T10:51:36;11.32;;;4.20;;
75628;SDS011;64213;46.452;16.994;2022-11-23T10:57:47;16.65;;;5.57;;
75628;SDS011;64213;46.452;16.994;2022-11-23T11:00:57;12.50;;;5.15;;
75628;SDS011;64213;46.452;16.994;2022-11-23T11:04:02;13.55;;;5.20;;
75628;SDS011;64213;46.452;16.994;2022-11-23T11:13:45;13.25;;;5.47;;
75628;SDS011;64213;46.452;16.994;2022-11-23T11:16:54;14.43;;;5.78;;
75628;SDS011;64213;46.452;16.994;2022-11-23T11:19:57;15.13;;;6.15;;
75628;SDS011;64213;46.452;16.994;2022-11-23T11:23:03;17.40;;;6.87;;
75628;SDS011;64213;46.452;16.994;2022-11-23T11:26:22;15.77;;;6.67;;
75628;SDS011;64213;46.452;16.994;2022-11-23T11:29:28;18.45;;;7.12;;
75628;SDS011;64213;46.452;16.994;2022-11-23T11:35:51;17.85;;;6.85;;
75628;SDS011;64213;46.452;16.994;2022-11-23T11:38:56;14.80;;;5.55;;
75628;SDS011;64213;46.452;16.994;2022-11-23T11:42:23;14.60;;;5.27;;
75628;SDS011;64213;46.452;16.994;2022-11-23T11:45:41;18.95;;;7.12;;
75628;SDS011;64213;46.452;16.994;2022-11-23T11:49:06;13.62;;;5.70;;
75628;SDS011;64213;46.452;16.994;2022-11-23T11:52:17;13.38;;;5.18;;
75628;SDS011;64213;46.452;16.994;2022-11-23T11:55:54;16.15;;;6.10;;
75628;SDS011;64213;46.452;16.994;2022-11-23T11:59:06;15.73;;;5.90;;
75628;SDS011;64213;46.452;16.994;2022-11-23T12:02:22;15.52;;;6.03;;
75628;SDS011;64213;46.452;16.994;2022-11-23T12:05:39;14.52;;;6.00;;
75628;SDS011;64213;46.452;16.994;2022-11-23T12:08:47;19.08;;;7.10;;
75628;SDS011;64213;46.452;16.994;2022-11-23T12:11:57;18.95;;;8.18;;
75628;SDS011;64213;46.452;16.994;2022-11-23T12:14:59;16.80;;;6.67;;
75628;SDS011;64213;46.452;16.994;2022-11-23T12:21:38;17.17;;;7.18;;
75628;SDS011;64213;46.452;16.994;2022-11-23T12:25:06;17.37;;;6.53;;
75628;SDS011;64213;46.452;16.994;2022-11-23T12:31:49;18.73;;;7.23;;
75628;SDS011;64213;46.452;16.994;2022-11-23T12:35:12;15.88;;;6.43;;
75628;SDS011;64213;46.452;16.994;2022-11-23T12:38:54;17.77;;;5.75;;
75628;SDS011;64213;46.452;16.994;2022-11-23T12:45:26;11.27;;;4.15;;
75628;SDS011;64213;46.452;16.994;2022-11-23T12:58:22;8.27;;;2.85;;
75628;SDS011;64213;46.452;16.994;2022-11-23T13:01:33;7.90;;;2.25;;
75628;SDS011;64213;46.452;16.994;2022-11-23T13:04:49;8.67;;;2.57;;
75628;SDS011;64213;46.452;16.994;2022-11-23T13:14:41;9.85;;;3.17;;
75628;SDS011;64213;46.452;16.994;2022-11-23T13:17:58;8.85;;;3.05;;
75628;SDS011;64213;46.452;16.994;2022-11-23T13:21:24;7.20;;;2.07;;
75628;SDS011;64213;46.452;16.994;2022-11-23T13:24:30;12.25;;;3.83;;
75628;SDS011;64213;46.452;16.994;2022-11-23T13:27:53;10.68;;;3.33;;
75628;SDS011;64213;46.452;16.994;2022-11-23T13:31:17;11.98;;;4.03;;
75628;SDS011;64213;46.452;16.994;2022-11-23T13:40:58;12.25;;;4.20;;
75628;SDS011;64213;46.452;16.994;2022-11-23T13:47:25;8.88;;;2.95;;
75628;SDS011;64213;46.452;16.994;2022-11-23T13:50:27;8.35;;;3.08;;
75628;SDS011;64213;46.452;16.994;2022-11-23T13:53:34;11.00;;;3.63;;
75628;SDS011;64213;46.452;16.994;2022-11-23T13:56:38;8.48;;;2.70;;
75628;SDS011;64213;46.452;16.994;2022-11-23T13:59:42;10.52;;;3.37;;
75628;SDS011;64213;46.452;16.994;2022-11-23T14:02:44;8.73;;;3.35;;
75628;SDS011;64213;46.452;16.994;2022-11-23T14:08:50;10.30;;;3.13;;
75628;SDS011;64213;46.452;16.994;2022-11-23T14:24:57;8.77;;;3.10;;
75628;SDS011;64213;46.452;16.994;2022-11-23T14:41:16;8.23;;;2.67;;
75628;SDS011;64213;46.452;16.994;2022-11-23T14:44:25;7.82;;;2.58;;
75628;SDS011;64213;46.452;16.994;2022-11-23T14:47:36;9.98;;;3.33;;
75628;SDS011;64213;46.452;16.994;2022-11-23T14:50:38;8.98;;;2.67;;
75628;SDS011;64213;46.452;16.994;2022-11-23T14:53:41;9.20;;;2.30;;
75628;SDS011;64213;46.452;16.994;2022-11-23T14:56:51;9.27;;;2.87;;
75628;SDS011;64213;46.452;16.994;2022-11-23T14:59:58;8.25;;;2.65;;
75628;SDS011;64213;46.452;16.994;2022-11-23T15:03:07;7.68;;;2.47;;
75628;SDS011;64213;46.452;16.994;2022-11-23T15:06:37;8.02;;;2.55;;
75628;SDS011;64213;46.452;16.994;2022-11-23T15:10:07;6.82;;;2.15;;
75628;SDS011;64213;46.452;16.994;2022-11-23T15:13:22;9.77;;;2.97;;
75628;SDS011;64213;46.452;16.994;2022-11-23T15:16:26;8.65;;;2.70;;
75628;SDS011;64213;46.452;16.994;2022-11-23T15:19:29;9.32;;;3.12;;
75628;SDS011;64213;46.452;16.994;2022-11-23T15:22:31;7.85;;;1.83;;
75628;SDS011;64213;46.452;16.994;2022-11-23T15:25:36;7.97;;;2.12;;
75628;SDS011;64213;46.452;16.994;2022-11-23T15:28:39;8.27;;;2.23;;
75628;SDS011;64213;46.452;16.994;2022-11-23T15:31:41;9.60;;;2.78;;
75628;SDS011;64213;46.452;16.994;2022-11-23T15:35:06;8.57;;;2.58;;
75628;SDS011;64213;46.452;16.994;2022-11-23T15:38:14;8.10;;;2.12;;
75628;SDS011;64213;46.452;16.994;2022-11-23T15:48:38;9.18;;;3.12;;
75628;SDS011;64213;46.452;16.994;2022-11-23T15:51:41;8.80;;;2.85;;
75628;SDS011;64213;46.452;16.994;2022-11-23T15:54:45;8.75;;;2.75;;
75628;SDS011;64213;46.452;16.994;2022-11-23T15:57:52;10.32;;;3.47;;
75628;SDS011;64213;46.452;16.994;2022-11-23T16:01:06;8.93;;;2.77;;
75628;SDS011;64213;46.452;16.994;2022-11-23T16:04:31;8.15;;;2.70;;
75628;SDS011;64213;46.452;16.994;2022-11-23T16:11:01;6.87;;;2.05;;
75628;SDS011;64213;46.452;16.994;2022-11-23T16:20:22;12.35;;;3.37;;
75628;SDS011;64213;46.452;16.994;2022-11-23T16:23:27;14.00;;;4.45;;
75628;SDS011;64213;46.452;16.994;2022-11-23T16:26:49;13.57;;;3.92;;
75628;SDS011;64213;46.452;16.994;2022-11-23T16:29:52;11.15;;;3.60;;
75628;SDS011;64213;46.452;16.994;2022-11-23T16:33:04;10.17;;;3.23;;
75628;SDS011;64213;46.452;16.994;2022-11-23T16:36:07;10.05;;;3.35;;
75628;SDS011;64213;46.452;16.994;2022-11-23T16:39:10;10.23;;;3.65;;
75628;SDS011;64213;46.452;16.994;2022-11-23T16:42:13;12.70;;;3.70;;
75628;SDS011;64213;46.452;16.994;2022-11-23T16:45:17;10.52;;;4.15;;
75628;SDS011;64213;46.452;16.994;2022-11-23T16:51:29;10.88;;;4.57;;
75628;SDS011;64213;46.452;16.994;2022-11-23T16:54:32;10.30;;;4.18;;
75628;SDS011;64213;46.452;16.994;2022-11-23T16:57:36;13.10;;;4.97;;
75628;SDS011;64213;46.452;16.994;2022-11-23T17:00:40;14.05;;;4.82;;
75628;SDS011;64213;46.452;16.994;2022-11-23T17:03:43;12.47;;;4.83;;
75628;SDS011;64213;46.452;16.994;2022-11-23T17:06:46;14.32;;;5.57;;
75628;SDS011;64213;46.452;16.994;2022-11-23T17:09:49;15.30;;;6.53;;
75628;SDS011;64213;46.452;16.994;2022-11-23T17:12:53;13.98;;;6.10;;
75628;SDS011;64213;46.452;16.994;2022-11-23T17:15:57;14.30;;;5.62;;
75628;SDS011;64213;46.452;16.994;2022-11-23T17:18:59;15.17;;;5.60;;
75628;SDS011;64213;46.452;16.994;2022-11-23T17:22:01;15.52;;;6.00;;
75628;SDS011;64213;46.452;16.994;2022-11-23T17:25:05;14.77;;;5.82;;
75628;SDS011;64213;46.452;16.994;2022-11-23T17:28:16;15.55;;;6.60;;
75628;SDS011;64213;46.452;16.994;2022-11-23T17:31:23;15.10;;;5.80;;
75628;SDS011;64213;46.452;16.994;2022-11-23T17:34:26;14.07;;;5.60;;
75628;SDS011;64213;46.452;16.994;2022-11-23T17:37:28;16.50;;;5.80;;
75628;SDS011;64213;46.452;16.994;2022-11-23T17:40:31;16.40;;;6.53;;
75628;SDS011;64213;46.452;16.994;2022-11-23T17:43:34;15.57;;;6.55;;
75628;SDS011;64213;46.452;16.994;2022-11-23T17:46:37;17.30;;;6.65;;
75628;SDS011;64213;46.452;16.994;2022-11-23T17:49:43;15.10;;;6.60;;
75628;SDS011;64213;46.452;16.994;2022-11-23T17:52:46;15.45;;;6.50;;
75628;SDS011;64213;46.452;16.994;2022-11-23T17:55:49;15.30;;;5.97;;
75628;SDS011;64213;46.452;16.994;2022-11-23T17:58:55;11.50;;;5.07;;
75628;SDS011;64213;46.452;16.994;2022-11-23T18:01:58;16.73;;;5.87;;
75628;SDS011;64213;46.452;16.994;2022-11-23T18:05:01;12.37;;;4.77;;
75628;SDS011;64213;46.452;16.994;2022-11-23T18:08:04;11.73;;;4.72;;
75628;SDS011;64213;46.452;16.994;2022-11-23T18:11:07;14.77;;;5.65;;
75628;SDS011;64213;46.452;16.994;2022-11-23T18:14:11;14.57;;;5.45;;
75628;SDS011;64213;46.452;16.994;2022-11-23T18:17:15;12.82;;;5.40;;
75628;SDS011;64213;46.452;16.994;2022-11-23T18:20:34;12.43;;;5.13;;
75628;SDS011;64213;46.452;16.994;2022-11-23T18:23:55;14.32;;;5.30;;
75628;SDS011;64213;46.452;16.994;2022-11-23T18:27:05;15.93;;;5.47;;
75628;SDS011;64213;46.452;16.994;2022-11-23T18:30:08;13.62;;;5.62;;
75628;SDS011;64213;46.452;16.994;2022-11-23T18:33:11;15.27;;;5.93;;
75628;SDS011;64213;46.452;16.994;2022-11-23T18:36:13;18.00;;;7.00;;
75628;SDS011;64213;46.452;16.994;2022-11-23T18:39:16;20.60;;;8.57;;
75628;SDS011;64213;46.452;16.994;2022-11-23T18:42:19;17.98;;;7.82;;
75628;SDS011;64213;46.452;16.994;2022-11-23T18:45:22;16.20;;;6.65;;
75628;SDS011;64213;46.452;16.994;2022-11-23T18:48:25;19.37;;;8.30;;
75628;SDS011;64213;46.452;16.994;2022-11-23T18:51:33;21.40;;;7.80;;
75628;SDS011;64213;46.452;16.994;2022-11-23T18:54:36;17.10;;;8.20;;
75628;SDS011;64213;46.452;16.994;2022-11-23T18:57:39;17.70;;;7.28;;
75628;SDS011;64213;46.452;16.994;2022-11-23T19:00:43;18.70;;;7.20;;
75628;SDS011;64213;46.452;16.994;2022-11-23T19:03:48;18.45;;;6.72;;
75628;SDS011;64213;46.452;16.994;2022-11-23T19:06:53;16.77;;;6.33;;
75628;SDS011;64213;46.452;16.994;2022-11-23T19:09:56;20.10;;;8.35;;
75628;SDS011;64213;46.452;16.994;2022-11-23T19:12:59;18.75;;;8.18;;
75628;SDS011;64213;46.452;16.994;2022-11-23T19:16:07;19.33;;;8.75;;
75628;SDS011;64213;46.452;16.994;2022-11-23T19:19:12;17.90;;;7.30;;
75628;SDS011;64213;46.452;16.994;2022-11-23T19:22:17;15.70;;;6.13;;
75628;SDS011;64213;46.452;16.994;2022-11-23T19:25:20;16.65;;;6.72;;
75628;SDS011;64213;46.452;16.994;2022-11-23T19:28:42;15.18;;;7.00;;
75628;SDS011;64213;46.452;16.994;2022-11-23T19:31:48;12.93;;;5.82;;
75628;SDS011;64213;46.452;16.994;2022-11-23T19:34:56;14.15;;;5.60;;
75628;SDS011;64213;46.452;16.994;2022-11-23T19:37:59;14.13;;;5.77;;
75628;SDS011;64213;46.452;16.994;2022-11-23T19:41:02;14.50;;;6.18;;
75628;SDS011;64213;46.452;16.994;2022-11-23T19:44:05;16.60;;;7.43;;
75628;SDS011;64213;46.452;16.994;2022-11-23T19:47:09;17.50;;;7.30;;
75628;SDS011;64213;46.452;16.994;2022-11-23T19:50:20;16.77;;;8.45;;
75628;SDS011;64213;46.452;16.994;2022-11-23T20:00:02;19.25;;;8.85;;
75628;SDS011;64213;46.452;16.994;2022-11-23T20:06:10;21.27;;;10.52;;
75628;SDS011;64213;46.452;16.994;2022-11-23T20:09:16;20.70;;;9.77;;
75628;SDS011;64213;46.452;16.994;2022-11-23T20:12:23;23.35;;;10.75;;
75628;SDS011;64213;46.452;16.994;2022-11-23T20:15:26;23.15;;;11.73;;